sensor_id;sensor_type;location;lat;lon;timestamp;temperature;humidity
42907;DHT22;28552;51.146;6.576;2023-05-07T00:01:43;14.50;99.90
42907;DHT22;28552;51.146;6.576;2023-05-07T00:04:44;14.40;99.90
42907;DHT22;28552;51.146;6.576;2023-05-07T00:07:46;14.40;99.90
42907;DHT22;28552;51.146;6.576;2023-05-07T00:10:46;14.40;99.90
42907;DHT22;28552;51.146;6.576;2023-05-07T00:13:48;14.40;99.90
42907;DHT22;28552;51.146;6.576;2023-05-07T00:16:48;14.40;99.90
42907;DHT22;28552;51.146;6.576;2023-05-07T00:19:49;14.30;99.90
42907;DHT22;28552;51.146;6.576;2023-05-07T00:22:49;14.30;99.90
42907;DHT22;28552;51.146;6.576;2023-05-07T00:25:51;14.40;99.90
42907;DHT22;28552;51.146;6.576;2023-05-07T00:28:51;14.30;99.90
42907;DHT22;28552;51.146;6.576;2023-05-07T00:31:52;14.30;99.90
42907;DHT22;28552;51.146;6.576;2023-05-07T00:34:55;14.30;99.90
42907;DHT22;28552;51.146;6.576;2023-05-07T00:37:56;14.30;99.90
42907;DHT22;28552;51.146;6.576;2023-05-07T00:40:56;14.20;99.90
42907;DHT22;28552;51.146;6.576;2023-05-07T00:43:57;14.30;99.90
42907;DHT22;28552;51.146;6.576;2023-05-07T00:46:58;14.20;99.90
42907;DHT22;28552;51.146;6.576;2023-05-07T00:49:58;14.20;99.90
42907;DHT22;28552;51.146;6.576;2023-05-07T00:52:59;14.20;99.90
42907;DHT22;28552;51.146;6.576;2023-05-07T00:56:00;14.20;99.90
42907;DHT22;28552;51.146;6.576;2023-05-07T00:59:03;14.10;99.90
42907;DHT22;28552;51.146;6.576;2023-05-07T01:02:03;14.10;99.90
42907;DHT22;28552;51.146;6.576;2023-05-07T01:05:05;14.00;99.90
42907;DHT22;28552;51.146;6.576;2023-05-07T01:08:08;14.00;99.90
42907;DHT22;28552;51.146;6.576;2023-05-07T01:11:09;14.00;99.90
42907;DHT22;28552;51.146;6.576;2023-05-07T01:14:11;14.00;99.90
42907;DHT22;28552;51.146;6.576;2023-05-07T01:17:11;14.00;99.90
42907;DHT22;28552;51.146;6.576;2023-05-07T01:20:12;14.00;99.90
42907;DHT22;28552;51.146;6.576;2023-05-07T01:23:12;14.00;99.90
42907;DHT22;28552;51.146;6.576;2023-05-07T01:26:13;14.00;99.90
42907;DHT22;28552;51.146;6.576;2023-05-07T01:29:13;14.00;99.90
42907;DHT22;28552;51.146;6.576;2023-05-07T01:32:15;14.00;99.90
42907;DHT22;28552;51.146;6.576;2023-05-07T01:35:23;14.00;99.90
42907;DHT22;28552;51.146;6.576;2023-05-07T01:38:25;14.00;99.90
42907;DHT22;28552;51.146;6.576;2023-05-07T01:41:26;14.00;99.90
42907;DHT22;28552;51.146;6.576;2023-05-07T01:44:27;14.00;99.90
42907;DHT22;28552;51.146;6.576;2023-05-07T01:47:29;14.00;99.90
42907;DHT22;28552;51.146;6.576;2023-05-07T01:50:30;14.00;99.90
42907;DHT22;28552;51.146;6.576;2023-05-07T01:53:36;14.00;99.90
42907;DHT22;28552;51.146;6.576;2023-05-07T01:56:37;14.00;99.90
42907;DHT22;28552;51.146;6.576;2023-05-07T01:59:37;14.00;99.90
42907;DHT22;28552;51.146;6.576;2023-05-07T02:02:38;14.00;99.90
42907;DHT22;28552;51.146;6.576;2023-05-07T02:05:38;14.00;99.90
42907;DHT22;28552;51.146;6.576;2023-05-07T02:08:39;14.00;99.90
42907;DHT22;28552;51.146;6.576;2023-05-07T02:11:39;14.00;99.90
42907;DHT22;28552;51.146;6.576;2023-05-07T02:14:40;14.00;99.90
42907;DHT22;28552;51.146;6.576;2023-05-07T02:17:59;14.00;99.90
42907;DHT22;28552;51.146;6.576;2023-05-07T02:21:00;14.00;99.90
42907;DHT22;28552;51.146;6.576;2023-05-07T02:24:00;14.00;99.90
42907;DHT22;28552;51.146;6.576;2023-05-07T02:27:01;13.90;99.90
42907;DHT22;28552;51.146;6.576;2023-05-07T02:30:02;13.90;99.90
42907;DHT22;28552;51.146;6.576;2023-05-07T02:33:03;13.80;99.90
42907;DHT22;28552;51.146;6.576;2023-05-07T02:36:06;13.70;99.90
42907;DHT22;28552;51.146;6.576;2023-05-07T02:39:07;13.60;99.90
42907;DHT22;28552;51.146;6.576;2023-05-07T02:42:08;13.60;99.90
42907;DHT22;28552;51.146;6.576;2023-05-07T02:45:09;13.50;99.90
42907;DHT22;28552;51.146;6.576;2023-05-07T02:48:09;13.40;99.90
42907;DHT22;28552;51.146;6.576;2023-05-07T02:51:10;13.40;99.90
42907;DHT22;28552;51.146;6.576;2023-05-07T02:54:10;13.40;99.90
42907;DHT22;28552;51.146;6.576;2023-05-07T02:57:11;13.40;99.90
42907;DHT22;28552;51.146;6.576;2023-05-07T03:00:14;13.40;99.90
42907;DHT22;28552;51.146;6.576;2023-05-07T03:03:16;13.40;99.90
42907;DHT22;28552;51.146;6.576;2023-05-07T03:06:16;13.40;99.90
42907;DHT22;28552;51.146;6.576;2023-05-07T03:09:17;13.50;99.90
42907;DHT22;28552;51.146;6.576;2023-05-07T03:12:17;13.50;99.90
42907;DHT22;28552;51.146;6.576;2023-05-07T03:15:18;13.50;99.90
42907;DHT22;28552;51.146;6.576;2023-05-07T03:18:18;13.50;99.90
42907;DHT22;28552;51.146;6.576;2023-05-07T03:21:19;13.50;99.90
42907;DHT22;28552;51.146;6.576;2023-05-07T03:24:19;13.50;99.90
42907;DHT22;28552;51.146;6.576;2023-05-07T03:27:20;13.50;99.90
42907;DHT22;28552;51.146;6.576;2023-05-07T03:30:21;13.50;99.90
42907;DHT22;28552;51.146;6.576;2023-05-07T03:33:21;13.50;99.90
42907;DHT22;28552;51.146;6.576;2023-05-07T03:36:22;13.50;99.90
42907;DHT22;28552;51.146;6.576;2023-05-07T03:39:23;13.50;99.90
42907;DHT22;28552;51.146;6.576;2023-05-07T03:42:24;13.50;99.90
42907;DHT22;28552;51.146;6.576;2023-05-07T03:45:24;13.50;99.90
42907;DHT22;28552;51.146;6.576;2023-05-07T03:48:25;13.50;99.90
42907;DHT22;28552;51.146;6.576;2023-05-07T03:51:26;13.50;99.90
42907;DHT22;28552;51.146;6.576;2023-05-07T03:54:27;13.40;99.90
42907;DHT22;28552;51.146;6.576;2023-05-07T03:57:27;13.40;99.90
42907;DHT22;28552;51.146;6.576;2023-05-07T04:00:28;13.40;99.90
42907;DHT22;28552;51.146;6.576;2023-05-07T04:03:29;13.30;99.90
42907;DHT22;28552;51.146;6.576;2023-05-07T04:06:30;13.30;99.90
42907;DHT22;28552;51.146;6.576;2023-05-07T04:09:31;13.30;99.90
42907;DHT22;28552;51.146;6.576;2023-05-07T04:12:31;13.30;99.90
42907;DHT22;28552;51.146;6.576;2023-05-07T04:15:32;13.40;99.90
42907;DHT22;28552;51.146;6.576;2023-05-07T04:18:32;13.40;99.90
42907;DHT22;28552;51.146;6.576;2023-05-07T04:21:33;13.40;99.90
42907;DHT22;28552;51.146;6.576;2023-05-07T04:24:33;13.40;99.90
42907;DHT22;28552;51.146;6.576;2023-05-07T04:27:34;13.50;99.90
42907;DHT22;28552;51.146;6.576;2023-05-07T04:30:35;13.50;99.90
42907;DHT22;28552;51.146;6.576;2023-05-07T04:33:35;13.50;99.90
42907;DHT22;28552;51.146;6.576;2023-05-07T04:36:36;13.50;99.90
42907;DHT22;28552;51.146;6.576;2023-05-07T04:39:37;13.60;99.90
42907;DHT22;28552;51.146;6.576;2023-05-07T04:42:37;13.60;99.90
42907;DHT22;28552;51.146;6.576;2023-05-07T04:45:38;13.70;99.90
42907;DHT22;28552;51.146;6.576;2023-05-07T04:48:41;13.70;99.90
42907;DHT22;28552;51.146;6.576;2023-05-07T04:51:42;13.70;99.90
42907;DHT22;28552;51.146;6.576;2023-05-07T04:54:43;13.70;99.90
42907;DHT22;28552;51.146;6.576;2023-05-07T04:57:43;13.80;99.90
42907;DHT22;28552;51.146;6.576;2023-05-07T05:00:44;13.80;99.90
42907;DHT22;28552;51.146;6.576;2023-05-07T05:03:44;13.80;99.90
42907;DHT22;28552;51.146;6.576;2023-05-07T05:06:45;13.80;99.90
42907;DHT22;28552;51.146;6.576;2023-05-07T05:09:45;13.90;99.90
42907;DHT22;28552;51.146;6.576;2023-05-07T05:12:46;13.90;99.90
42907;DHT22;28552;51.146;6.576;2023-05-07T05:15:46;14.00;99.90
42907;DHT22;28552;51.146;6.576;2023-05-07T05:18:47;14.00;99.90
42907;DHT22;28552;51.146;6.576;2023-05-07T05:21:47;14.10;99.90
42907;DHT22;28552;51.146;6.576;2023-05-07T05:24:48;14.20;99.90
42907;DHT22;28552;51.146;6.576;2023-05-07T05:27:48;14.30;99.90
42907;DHT22;28552;51.146;6.576;2023-05-07T05:30:49;14.40;99.90
42907;DHT22;28552;51.146;6.576;2023-05-07T05:33:50;14.40;99.90
42907;DHT22;28552;51.146;6.576;2023-05-07T05:36:50;14.50;99.90
42907;DHT22;28552;51.146;6.576;2023-05-07T05:39:51;14.60;99.90
42907;DHT22;28552;51.146;6.576;2023-05-07T05:42:52;14.60;99.90
42907;DHT22;28552;51.146;6.576;2023-05-07T05:45:53;14.70;99.90
42907;DHT22;28552;51.146;6.576;2023-05-07T05:48:55;14.70;99.90
42907;DHT22;28552;51.146;6.576;2023-05-07T05:51:56;14.80;99.90
42907;DHT22;28552;51.146;6.576;2023-05-07T05:54:56;14.80;99.90
42907;DHT22;28552;51.146;6.576;2023-05-07T05:57:57;14.90;99.90
42907;DHT22;28552;51.146;6.576;2023-05-07T06:00:57;15.00;99.90
42907;DHT22;28552;51.146;6.576;2023-05-07T06:03:58;15.00;99.90
42907;DHT22;28552;51.146;6.576;2023-05-07T06:06:59;15.10;99.90
42907;DHT22;28552;51.146;6.576;2023-05-07T06:10:00;15.10;99.90
42907;DHT22;28552;51.146;6.576;2023-05-07T06:13:00;15.10;99.90
42907;DHT22;28552;51.146;6.576;2023-05-07T06:16:01;15.20;99.90
42907;DHT22;28552;51.146;6.576;2023-05-07T06:19:02;15.20;99.90
42907;DHT22;28552;51.146;6.576;2023-05-07T06:22:02;15.30;99.90
42907;DHT22;28552;51.146;6.576;2023-05-07T06:25:03;15.30;99.90
42907;DHT22;28552;51.146;6.576;2023-05-07T06:28:03;15.40;99.90
42907;DHT22;28552;51.146;6.576;2023-05-07T06:31:12;15.60;99.90
42907;DHT22;28552;51.146;6.576;2023-05-07T06:34:13;15.90;99.90
42907;DHT22;28552;51.146;6.576;2023-05-07T06:37:14;16.20;99.90
42907;DHT22;28552;51.146;6.576;2023-05-07T06:40:15;16.30;99.90
42907;DHT22;28552;51.146;6.576;2023-05-07T06:43:16;16.40;99.90
42907;DHT22;28552;51.146;6.576;2023-05-07T06:46:16;16.40;99.90
42907;DHT22;28552;51.146;6.576;2023-05-07T06:49:17;16.40;99.90
42907;DHT22;28552;51.146;6.576;2023-05-07T06:52:17;16.40;99.90
42907;DHT22;28552;51.146;6.576;2023-05-07T06:55:18;16.50;99.90
42907;DHT22;28552;51.146;6.576;2023-05-07T06:58:19;16.60;99.90
42907;DHT22;28552;51.146;6.576;2023-05-07T07:01:20;16.80;99.90
42907;DHT22;28552;51.146;6.576;2023-05-07T07:04:21;17.10;99.90
42907;DHT22;28552;51.146;6.576;2023-05-07T07:07:23;17.20;99.90
42907;DHT22;28552;51.146;6.576;2023-05-07T07:10:23;17.30;99.90
42907;DHT22;28552;51.146;6.576;2023-05-07T07:13:24;17.40;99.90
42907;DHT22;28552;51.146;6.576;2023-05-07T07:16:25;17.50;99.90
42907;DHT22;28552;51.146;6.576;2023-05-07T07:19:26;17.60;99.90
42907;DHT22;28552;51.146;6.576;2023-05-07T07:22:26;17.70;99.90
42907;DHT22;28552;51.146;6.576;2023-05-07T07:25:27;17.70;99.90
42907;DHT22;28552;51.146;6.576;2023-05-07T07:28:27;17.80;99.90
42907;DHT22;28552;51.146;6.576;2023-05-07T07:31:28;17.90;99.90
42907;DHT22;28552;51.146;6.576;2023-05-07T07:34:28;18.00;99.90
42907;DHT22;28552;51.146;6.576;2023-05-07T07:37:29;18.10;99.90
42907;DHT22;28552;51.146;6.576;2023-05-07T07:40:30;18.20;99.90
42907;DHT22;28552;51.146;6.576;2023-05-07T07:43:30;18.30;99.90
42907;DHT22;28552;51.146;6.576;2023-05-07T07:46:31;18.40;99.90
42907;DHT22;28552;51.146;6.576;2023-05-07T07:49:31;18.50;99.90
42907;DHT22;28552;51.146;6.576;2023-05-07T07:52:32;18.70;99.90
42907;DHT22;28552;51.146;6.576;2023-05-07T07:55:34;18.70;99.90
42907;DHT22;28552;51.146;6.576;2023-05-07T07:58:38;18.80;99.90
42907;DHT22;28552;51.146;6.576;2023-05-07T08:01:39;18.80;99.90
42907;DHT22;28552;51.146;6.576;2023-05-07T08:04:40;18.80;99.90
42907;DHT22;28552;51.146;6.576;2023-05-07T08:07:40;18.80;99.90
42907;DHT22;28552;51.146;6.576;2023-05-07T08:10:41;18.80;99.90
42907;DHT22;28552;51.146;6.576;2023-05-07T08:13:41;18.90;99.90
42907;DHT22;28552;51.146;6.576;2023-05-07T08:16:42;19.00;99.90
42907;DHT22;28552;51.146;6.576;2023-05-07T08:19:43;19.20;99.90
42907;DHT22;28552;51.146;6.576;2023-05-07T08:22:43;19.30;99.90
42907;DHT22;28552;51.146;6.576;2023-05-07T08:25:44;19.50;99.90
42907;DHT22;28552;51.146;6.576;2023-05-07T08:28:44;19.60;99.90
42907;DHT22;28552;51.146;6.576;2023-05-07T08:31:45;19.70;99.90
42907;DHT22;28552;51.146;6.576;2023-05-07T08:34:46;19.90;99.90
42907;DHT22;28552;51.146;6.576;2023-05-07T08:37:46;20.00;99.90
42907;DHT22;28552;51.146;6.576;2023-05-07T08:40:47;20.20;99.90
42907;DHT22;28552;51.146;6.576;2023-05-07T08:43:49;20.30;99.90
42907;DHT22;28552;51.146;6.576;2023-05-07T08:46:51;20.40;99.90
42907;DHT22;28552;51.146;6.576;2023-05-07T08:49:54;20.40;99.90
42907;DHT22;28552;51.146;6.576;2023-05-07T08:52:56;20.50;99.90
42907;DHT22;28552;51.146;6.576;2023-05-07T08:55:57;20.50;99.90
42907;DHT22;28552;51.146;6.576;2023-05-07T08:58:58;20.60;99.90
42907;DHT22;28552;51.146;6.576;2023-05-07T09:01:59;20.70;99.90
42907;DHT22;28552;51.146;6.576;2023-05-07T09:05:00;20.80;99.90
42907;DHT22;28552;51.146;6.576;2023-05-07T09:08:02;21.10;99.90
42907;DHT22;28552;51.146;6.576;2023-05-07T09:11:02;21.30;99.90
42907;DHT22;28552;51.146;6.576;2023-05-07T09:14:03;21.40;99.90
42907;DHT22;28552;51.146;6.576;2023-05-07T09:17:04;21.50;99.90
42907;DHT22;28552;51.146;6.576;2023-05-07T09:20:06;21.60;99.90
42907;DHT22;28552;51.146;6.576;2023-05-07T09:23:07;21.70;99.90
42907;DHT22;28552;51.146;6.576;2023-05-07T09:26:08;21.70;99.90
42907;DHT22;28552;51.146;6.576;2023-05-07T09:29:11;21.80;99.90
42907;DHT22;28552;51.146;6.576;2023-05-07T09:32:12;21.90;99.90
42907;DHT22;28552;51.146;6.576;2023-05-07T09:35:16;22.00;99.90
42907;DHT22;28552;51.146;6.576;2023-05-07T09:38:19;22.10;99.90
42907;DHT22;28552;51.146;6.576;2023-05-07T09:41:21;22.10;99.90
42907;DHT22;28552;51.146;6.576;2023-05-07T09:44:22;22.20;99.90
42907;DHT22;28552;51.146;6.576;2023-05-07T09:47:24;22.20;99.90
42907;DHT22;28552;51.146;6.576;2023-05-07T09:50:28;22.30;99.90
42907;DHT22;28552;51.146;6.576;2023-05-07T09:53:30;22.30;99.90
42907;DHT22;28552;51.146;6.576;2023-05-07T09:56:31;22.40;99.90
42907;DHT22;28552;51.146;6.576;2023-05-07T09:59:33;22.50;99.90
42907;DHT22;28552;51.146;6.576;2023-05-07T10:02:36;22.60;99.90
42907;DHT22;28552;51.146;6.576;2023-05-07T10:05:37;22.70;99.90
42907;DHT22;28552;51.146;6.576;2023-05-07T10:08:38;22.80;99.90
42907;DHT22;28552;51.146;6.576;2023-05-07T10:11:39;23.00;99.90
42907;DHT22;28552;51.146;6.576;2023-05-07T10:14:40;23.10;99.90
42907;DHT22;28552;51.146;6.576;2023-05-07T10:17:42;23.20;99.90
42907;DHT22;28552;51.146;6.576;2023-05-07T10:20:45;23.20;99.90
42907;DHT22;28552;51.146;6.576;2023-05-07T10:23:51;23.20;99.90
42907;DHT22;28552;51.146;6.576;2023-05-07T10:26:53;23.10;99.90
42907;DHT22;28552;51.146;6.576;2023-05-07T10:29:58;23.10;99.90
42907;DHT22;28552;51.146;6.576;2023-05-07T10:33:03;23.10;99.90
42907;DHT22;28552;51.146;6.576;2023-05-07T10:36:06;23.00;99.90
42907;DHT22;28552;51.146;6.576;2023-05-07T10:39:08;23.00;99.90
42907;DHT22;28552;51.146;6.576;2023-05-07T10:42:11;23.10;99.90
42907;DHT22;28552;51.146;6.576;2023-05-07T10:45:13;23.10;99.90
42907;DHT22;28552;51.146;6.576;2023-05-07T10:48:16;23.20;99.90
42907;DHT22;28552;51.146;6.576;2023-05-07T10:51:19;23.30;99.90
42907;DHT22;28552;51.146;6.576;2023-05-07T10:54:22;23.40;99.90
42907;DHT22;28552;51.146;6.576;2023-05-07T10:57:37;23.50;99.90
42907;DHT22;28552;51.146;6.576;2023-05-07T11:04:14;23.60;99.90
42907;DHT22;28552;51.146;6.576;2023-05-07T11:07:25;23.80;99.90
42907;DHT22;28552;51.146;6.576;2023-05-07T11:10:47;23.90;99.90
42907;DHT22;28552;51.146;6.576;2023-05-07T11:13:48;23.90;99.90
42907;DHT22;28552;51.146;6.576;2023-05-07T11:16:49;23.80;99.90
42907;DHT22;28552;51.146;6.576;2023-05-07T11:19:55;23.80;99.90
42907;DHT22;28552;51.146;6.576;2023-05-07T11:22:55;24.00;99.90
42907;DHT22;28552;51.146;6.576;2023-05-07T11:26:06;24.00;99.90
42907;DHT22;28552;51.146;6.576;2023-05-07T11:29:11;23.90;99.90
42907;DHT22;28552;51.146;6.576;2023-05-07T11:32:12;23.80;99.90
42907;DHT22;28552;51.146;6.576;2023-05-07T11:35:15;23.80;99.90
42907;DHT22;28552;51.146;6.576;2023-05-07T11:38:17;23.70;99.90
42907;DHT22;28552;51.146;6.576;2023-05-07T11:41:18;23.60;99.90
42907;DHT22;28552;51.146;6.576;2023-05-07T11:44:20;23.60;99.90
42907;DHT22;28552;51.146;6.576;2023-05-07T11:47:21;23.50;99.90
42907;DHT22;28552;51.146;6.576;2023-05-07T11:50:22;23.40;99.90
42907;DHT22;28552;51.146;6.576;2023-05-07T11:53:25;23.30;99.90
42907;DHT22;28552;51.146;6.576;2023-05-07T11:56:26;23.30;99.90
42907;DHT22;28552;51.146;6.576;2023-05-07T11:59:26;23.30;99.90
42907;DHT22;28552;51.146;6.576;2023-05-07T12:02:27;23.30;99.90
42907;DHT22;28552;51.146;6.576;2023-05-07T12:05:29;23.30;99.90
42907;DHT22;28552;51.146;6.576;2023-05-07T12:08:29;23.30;99.90
42907;DHT22;28552;51.146;6.576;2023-05-07T12:11:30;23.40;99.90
42907;DHT22;28552;51.146;6.576;2023-05-07T12:14:30;23.40;99.90
42907;DHT22;28552;51.146;6.576;2023-05-07T12:17:31;23.40;99.90
42907;DHT22;28552;51.146;6.576;2023-05-07T12:20:34;23.30;99.90
42907;DHT22;28552;51.146;6.576;2023-05-07T12:23:36;23.10;99.90
42907;DHT22;28552;51.146;6.576;2023-05-07T12:26:38;23.10;99.90
42907;DHT22;28552;51.146;6.576;2023-05-07T12:29:39;22.90;99.90
42907;DHT22;28552;51.146;6.576;2023-05-07T12:32:41;22.80;99.90
42907;DHT22;28552;51.146;6.576;2023-05-07T12:35:42;22.70;99.90
42907;DHT22;28552;51.146;6.576;2023-05-07T12:38:43;22.70;99.90
42907;DHT22;28552;51.146;6.576;2023-05-07T12:41:59;22.50;99.90
42907;DHT22;28552;51.146;6.576;2023-05-07T12:45:00;22.50;99.90
42907;DHT22;28552;51.146;6.576;2023-05-07T12:48:02;22.40;99.90
42907;DHT22;28552;51.146;6.576;2023-05-07T12:51:05;22.30;99.90
42907;DHT22;28552;51.146;6.576;2023-05-07T12:54:06;22.20;99.90
42907;DHT22;28552;51.146;6.576;2023-05-07T12:57:08;22.20;99.90
42907;DHT22;28552;51.146;6.576;2023-05-07T13:00:09;22.30;99.90
42907;DHT22;28552;51.146;6.576;2023-05-07T13:03:11;22.20;99.90
42907;DHT22;28552;51.146;6.576;2023-05-07T13:06:11;22.20;99.90
42907;DHT22;28552;51.146;6.576;2023-05-07T13:09:13;22.10;99.90
42907;DHT22;28552;51.146;6.576;2023-05-07T13:12:13;22.00;99.90
42907;DHT22;28552;51.146;6.576;2023-05-07T13:15:14;22.00;99.90
42907;DHT22;28552;51.146;6.576;2023-05-07T13:18:15;21.90;99.90
42907;DHT22;28552;51.146;6.576;2023-05-07T13:21:16;21.70;99.90
42907;DHT22;28552;51.146;6.576;2023-05-07T13:24:16;21.60;99.90
42907;DHT22;28552;51.146;6.576;2023-05-07T13:27:17;21.50;99.90
42907;DHT22;28552;51.146;6.576;2023-05-07T13:30:19;21.40;99.90
42907;DHT22;28552;51.146;6.576;2023-05-07T13:33:19;21.30;99.90
42907;DHT22;28552;51.146;6.576;2023-05-07T13:36:20;21.20;99.90
42907;DHT22;28552;51.146;6.576;2023-05-07T13:39:21;21.10;99.90
42907;DHT22;28552;51.146;6.576;2023-05-07T13:42:21;21.00;99.90
42907;DHT22;28552;51.146;6.576;2023-05-07T13:45:22;20.90;99.90
42907;DHT22;28552;51.146;6.576;2023-05-07T13:48:25;20.80;99.90
42907;DHT22;28552;51.146;6.576;2023-05-07T13:51:26;20.70;99.90
42907;DHT22;28552;51.146;6.576;2023-05-07T13:54:26;20.60;99.90
42907;DHT22;28552;51.146;6.576;2023-05-07T13:57:27;20.50;99.90
42907;DHT22;28552;51.146;6.576;2023-05-07T14:00:28;20.50;99.90
42907;DHT22;28552;51.146;6.576;2023-05-07T14:03:29;20.40;99.90
42907;DHT22;28552;51.146;6.576;2023-05-07T14:06:32;20.30;99.90
42907;DHT22;28552;51.146;6.576;2023-05-07T14:09:32;20.10;99.90
42907;DHT22;28552;51.146;6.576;2023-05-07T14:12:33;20.00;99.90
42907;DHT22;28552;51.146;6.576;2023-05-07T14:15:34;19.90;99.90
42907;DHT22;28552;51.146;6.576;2023-05-07T14:18:34;19.60;99.90
42907;DHT22;28552;51.146;6.576;2023-05-07T14:21:37;19.20;99.90
42907;DHT22;28552;51.146;6.576;2023-05-07T14:24:37;18.60;99.90
42907;DHT22;28552;51.146;6.576;2023-05-07T14:27:39;18.10;99.90
42907;DHT22;28552;51.146;6.576;2023-05-07T14:30:40;17.70;99.90
42907;DHT22;28552;51.146;6.576;2023-05-07T14:33:40;17.50;99.90
42907;DHT22;28552;51.146;6.576;2023-05-07T14:36:41;17.30;99.90
42907;DHT22;28552;51.146;6.576;2023-05-07T14:39:41;17.10;99.90
42907;DHT22;28552;51.146;6.576;2023-05-07T14:42:42;17.10;99.90
42907;DHT22;28552;51.146;6.576;2023-05-07T14:45:42;17.00;99.90
42907;DHT22;28552;51.146;6.576;2023-05-07T14:48:44;17.00;99.90
42907;DHT22;28552;51.146;6.576;2023-05-07T14:51:46;17.10;99.90
42907;DHT22;28552;51.146;6.576;2023-05-07T14:54:47;17.20;99.90
42907;DHT22;28552;51.146;6.576;2023-05-07T14:57:47;17.30;99.90
42907;DHT22;28552;51.146;6.576;2023-05-07T15:00:48;17.40;99.90
42907;DHT22;28552;51.146;6.576;2023-05-07T15:03:49;17.40;99.90
42907;DHT22;28552;51.146;6.576;2023-05-07T15:06:49;17.50;99.90
42907;DHT22;28552;51.146;6.576;2023-05-07T15:09:50;17.50;99.90
42907;DHT22;28552;51.146;6.576;2023-05-07T15:12:51;17.60;99.90
42907;DHT22;28552;51.146;6.576;2023-05-07T15:15:52;17.60;99.90
42907;DHT22;28552;51.146;6.576;2023-05-07T15:18:52;17.70;99.90
42907;DHT22;28552;51.146;6.576;2023-05-07T15:21:53;17.90;99.90
42907;DHT22;28552;51.146;6.576;2023-05-07T15:24:53;18.00;99.90
42907;DHT22;28552;51.146;6.576;2023-05-07T15:27:55;18.10;99.90
42907;DHT22;28552;51.146;6.576;2023-05-07T15:30:56;18.20;99.90
42907;DHT22;28552;51.146;6.576;2023-05-07T15:33:56;18.30;99.90
42907;DHT22;28552;51.146;6.576;2023-05-07T15:36:57;18.40;99.90
42907;DHT22;28552;51.146;6.576;2023-05-07T15:39:58;18.50;99.90
42907;DHT22;28552;51.146;6.576;2023-05-07T15:42:58;18.60;99.90
42907;DHT22;28552;51.146;6.576;2023-05-07T15:45:59;18.80;99.90
42907;DHT22;28552;51.146;6.576;2023-05-07T15:49:01;18.80;99.90
42907;DHT22;28552;51.146;6.576;2023-05-07T15:52:03;18.90;99.90
42907;DHT22;28552;51.146;6.576;2023-05-07T15:55:04;19.10;99.90
42907;DHT22;28552;51.146;6.576;2023-05-07T15:58:06;19.10;99.90
42907;DHT22;28552;51.146;6.576;2023-05-07T16:01:07;19.10;99.90
42907;DHT22;28552;51.146;6.576;2023-05-07T16:04:08;19.20;99.90
42907;DHT22;28552;51.146;6.576;2023-05-07T16:07:08;19.30;99.90
42907;DHT22;28552;51.146;6.576;2023-05-07T16:10:09;19.40;99.90
42907;DHT22;28552;51.146;6.576;2023-05-07T16:13:10;19.30;99.90
42907;DHT22;28552;51.146;6.576;2023-05-07T16:16:11;19.30;99.90
42907;DHT22;28552;51.146;6.576;2023-05-07T16:19:12;19.30;99.90
42907;DHT22;28552;51.146;6.576;2023-05-07T16:22:12;19.30;99.90
42907;DHT22;28552;51.146;6.576;2023-05-07T16:25:13;19.30;99.90
42907;DHT22;28552;51.146;6.576;2023-05-07T16:28:14;19.40;99.90
42907;DHT22;28552;51.146;6.576;2023-05-07T16:31:15;19.40;99.90
42907;DHT22;28552;51.146;6.576;2023-05-07T16:34:15;19.50;99.90
42907;DHT22;28552;51.146;6.576;2023-05-07T16:37:16;19.50;99.90
42907;DHT22;28552;51.146;6.576;2023-05-07T16:40:17;19.50;99.90
42907;DHT22;28552;51.146;6.576;2023-05-07T16:43:17;19.40;99.90
42907;DHT22;28552;51.146;6.576;2023-05-07T16:46:18;19.40;99.90
42907;DHT22;28552;51.146;6.576;2023-05-07T16:49:18;19.40;99.90
42907;DHT22;28552;51.146;6.576;2023-05-07T16:52:19;19.40;99.90
42907;DHT22;28552;51.146;6.576;2023-05-07T16:55:19;19.40;99.90
42907;DHT22;28552;51.146;6.576;2023-05-07T16:58:20;19.40;99.90
42907;DHT22;28552;51.146;6.576;2023-05-07T17:01:21;19.50;99.90
42907;DHT22;28552;51.146;6.576;2023-05-07T17:04:22;19.50;99.90
42907;DHT22;28552;51.146;6.576;2023-05-07T17:07:25;19.40;99.90
42907;DHT22;28552;51.146;6.576;2023-05-07T17:10:26;19.30;99.90
42907;DHT22;28552;51.146;6.576;2023-05-07T17:13:27;19.10;99.90
42907;DHT22;28552;51.146;6.576;2023-05-07T17:16:27;19.00;99.90
42907;DHT22;28552;51.146;6.576;2023-05-07T17:19:28;18.90;99.90
42907;DHT22;28552;51.146;6.576;2023-05-07T17:22:28;18.80;99.90
42907;DHT22;28552;51.146;6.576;2023-05-07T17:25:31;18.70;99.90
42907;DHT22;28552;51.146;6.576;2023-05-07T17:28:32;18.60;99.90
42907;DHT22;28552;51.146;6.576;2023-05-07T17:31:32;18.60;99.90
42907;DHT22;28552;51.146;6.576;2023-05-07T17:34:33;18.50;99.90
42907;DHT22;28552;51.146;6.576;2023-05-07T17:37:34;18.40;99.90
42907;DHT22;28552;51.146;6.576;2023-05-07T17:40:34;18.30;99.90
42907;DHT22;28552;51.146;6.576;2023-05-07T17:43:35;18.20;99.90
42907;DHT22;28552;51.146;6.576;2023-05-07T17:46:35;18.20;99.90
42907;DHT22;28552;51.146;6.576;2023-05-07T17:49:36;18.10;99.90
42907;DHT22;28552;51.146;6.576;2023-05-07T17:52:37;18.00;99.90
42907;DHT22;28552;51.146;6.576;2023-05-07T17:55:42;18.00;99.90
42907;DHT22;28552;51.146;6.576;2023-05-07T17:58:44;18.00;99.90
42907;DHT22;28552;51.146;6.576;2023-05-07T18:01:44;17.90;99.90
42907;DHT22;28552;51.146;6.576;2023-05-07T18:04:45;17.90;99.90
42907;DHT22;28552;51.146;6.576;2023-05-07T18:07:45;17.80;99.90
42907;DHT22;28552;51.146;6.576;2023-05-07T18:10:46;17.80;99.90
42907;DHT22;28552;51.146;6.576;2023-05-07T18:13:47;17.80;99.90
42907;DHT22;28552;51.146;6.576;2023-05-07T18:16:47;17.70;99.90
42907;DHT22;28552;51.146;6.576;2023-05-07T18:19:48;17.70;99.90
42907;DHT22;28552;51.146;6.576;2023-05-07T18:22:49;17.70;99.90
42907;DHT22;28552;51.146;6.576;2023-05-07T18:25:50;17.70;99.90
42907;DHT22;28552;51.146;6.576;2023-05-07T18:28:50;17.70;99.90
42907;DHT22;28552;51.146;6.576;2023-05-07T18:31:51;17.70;99.90
42907;DHT22;28552;51.146;6.576;2023-05-07T18:34:52;17.60;99.90
42907;DHT22;28552;51.146;6.576;2023-05-07T18:37:53;17.60;99.90
42907;DHT22;28552;51.146;6.576;2023-05-07T18:41:01;17.60;99.90
42907;DHT22;28552;51.146;6.576;2023-05-07T18:44:02;17.60;99.90
42907;DHT22;28552;51.146;6.576;2023-05-07T18:47:04;17.60;99.90
42907;DHT22;28552;51.146;6.576;2023-05-07T18:50:05;17.50;99.90
42907;DHT22;28552;51.146;6.576;2023-05-07T18:53:06;17.50;99.90
42907;DHT22;28552;51.146;6.576;2023-05-07T18:56:06;17.60;99.90
42907;DHT22;28552;51.146;6.576;2023-05-07T18:59:08;17.60;99.90
42907;DHT22;28552;51.146;6.576;2023-05-07T19:02:08;17.60;99.90
42907;DHT22;28552;51.146;6.576;2023-05-07T19:05:09;17.70;99.90
42907;DHT22;28552;51.146;6.576;2023-05-07T19:08:09;17.70;99.90